Redcliffe, Australia
Current Conditions -  °F | °C
As of 6:00 PM on Wednesday 22 Oct 2014 (Local Time) from YBBN Reporting Station
Few Clouds Few Clouds  
Wind Chill: 68°   Ceiling: Unl
Heat Index: 68°   Visibility: 6mi
Dew Point: 54°   Wind: 8mph
Humidity: 60%   Direction: 100°E
Pressure: 30.18"   Gusts: NA
Location:  27.23°S, 153.12°E
Report Text: YBBN 220800Z 10007KT 9999 FEW030 20/12 Q1022 NOSIG
Loading
Personal Weather Stations






























Interactive Weather Map
Tropical Storm Tracking
New forecast layout! Learn more

10-Day Weather Forecast

Advertisements
Track Severe Weather on mobile